Time,TemperatureF,DewpointF,PressureIn,WindDirection,WindDirectionDegrees,WindSpeedMPH,WindSpeedGustMPH,Humidity,HourlyPrecipIn,Conditions,Clouds,dailyrainin,SoftwareType,DateUTC
2013-07-11 00:01:00,78.9,60.9,32.04,SW,215,0.0,1.0,54,0.00,,---,0.00,VWS V14.01,2013-07-11 04:01:00,
2013-07-11 00:06:00,78.8,60.2,32.04,SW,215,0.0,0.0,53,0.00,,---,0.00,VWS V14.01,2013-07-11 04:06:00,
2013-07-11 00:11:00,78.7,60.2,32.04,SW,214,0.0,0.0,53,0.00,,---,0.00,VWS V14.01,2013-07-11 04:11:00,
2013-07-11 00:16:00,78.7,60.2,32.04,SW,215,0.0,0.0,53,0.00,,---,0.00,VWS V14.01,2013-07-11 04:16:00,
2013-07-11 00:21:00,78.7,60.2,32.04,SW,215,0.0,0.0,53,0.00,,---,0.00,VWS V14.01,2013-07-11 04:21:00,
2013-07-11 00:26:00,78.7,60.2,32.04,SW,215,0.0,0.0,53,0.00,,---,0.00,VWS V14.01,2013-07-11 04:26:00,
2013-07-11 00:31:00,78.6,60.1,32.04,SW,214,0.0,0.0,53,0.00,,---,0.00,VWS V14.01,2013-07-11 04:31:00,
2013-07-11 00:36:00,78.7,59.6,32.04,SW,215,0.0,0.0,52,0.00,,---,0.00,VWS V14.01,2013-07-11 04:36:00,
2013-07-11 00:41:00,78.7,59.1,32.04,SW,214,0.0,1.0,51,0.00,,---,0.00,VWS V14.01,2013-07-11 04:41:00,
2013-07-11 00:46:00,78.7,59.6,32.04,SW,214,0.0,1.0,52,0.00,,---,0.00,VWS V14.01,2013-07-11 04:46:00,
2013-07-11 00:51:00,78.5,59.4,32.04,SW,214,0.0,1.0,52,0.00,,---,0.00,VWS V14.01,2013-07-11 04:51:00,
2013-07-11 00:56:00,78.4,59.3,32.04,SW,215,0.0,1.0,52,0.00,,---,0.00,VWS V14.01,2013-07-11 04:56:00,
2013-07-11 01:01:00,78.4,59.3,32.04,SW,215,0.0,3.0,52,0.00,,---,0.00,VWS V14.01,2013-07-11 05:01:00,
2013-07-11 01:06:00,78.4,59.3,32.04,SW,215,0.0,0.0,52,0.00,,---,0.00,VWS V14.01,2013-07-11 05:06:00,
2013-07-11 01:11:00,78.4,58.8,32.04,SW,214,0.0,0.0,51,0.00,,---,0.00,VWS V14.01,2013-07-11 05:11:00,
2013-07-11 01:16:00,78.5,58.3,32.04,West,259,0.0,3.0,50,0.00,,---,0.00,VWS V14.01,2013-07-11 05:16:00,
2013-07-11 01:21:00,78.7,58.5,32.04,SW,232,0.0,3.0,50,0.00,,---,0.00,VWS V14.01,2013-07-11 05:21:00,
2013-07-11 01:26:00,79.3,59.1,32.04,WNW,292,0.0,5.0,50,0.00,,---,0.00,VWS V14.01,2013-07-11 05:26:00,
2013-07-11 01:31:00,79.8,60.6,32.04,SW,228,0.0,5.0,52,0.00,,---,0.00,VWS V14.01,2013-07-11 05:31:00,
2013-07-11 01:36:00,80.2,61.5,32.04,WSW,241,0.0,2.0,53,0.00,,---,0.00,VWS V14.01,2013-07-11 05:36:00,
2013-07-11 01:41:00,80.3,63.2,32.04,WSW,241,0.0,2.0,56,0.00,,---,0.00,VWS V14.01,2013-07-11 05:41:00,
2013-07-11 01:46:00,80.2,64.6,32.04,WSW,241,0.0,2.0,59,0.00,,---,0.00,VWS V14.01,2013-07-11 05:46:00,
2013-07-11 01:51:00,80.0,64.4,32.04,WSW,241,0.0,2.0,59,0.00,,---,0.00,VWS V14.01,2013-07-11 05:51:00,
2013-07-11 01:56:00,79.8,64.2,32.04,WSW,241,0.0,2.0,59,0.00,,---,0.00,VWS V14.01,2013-07-11 05:56:00,
2013-07-11 02:01:00,79.6,64.0,32.04,WSW,241,0.0,2.0,59,0.00,,---,0.00,VWS V14.01,2013-07-11 06:01:00,
2013-07-11 02:06:00,79.3,63.7,32.04,WSW,241,0.0,0.0,59,0.00,,---,0.00,VWS V14.01,2013-07-11 06:06:00,
2013-07-11 02:11:00,79.1,63.1,32.04,WSW,241,0.0,0.0,58,0.00,,---,0.00,VWS V14.01,2013-07-11 06:11:00,
2013-07-11 02:16:00,78.7,62.2,32.04,WSW,241,0.0,0.0,57,0.00,,---,0.00,VWS V14.01,2013-07-11 06:16:00,
2013-07-11 02:21:00,78.7,61.7,32.04,WSW,241,0.0,0.0,56,0.00,,---,0.00,VWS V14.01,2013-07-11 06:21:00,
2013-07-11 02:26:00,78.4,60.9,32.04,WSW,241,0.0,0.0,55,0.00,,---,0.00,VWS V14.01,2013-07-11 06:26:00,
2013-07-11 02:31:00,78.4,59.9,32.04,WSW,241,0.0,1.0,53,0.00,,---,0.00,VWS V14.01,2013-07-11 06:31:00,
2013-07-11 02:36:00,78.6,59.0,32.04,SSW,206,0.0,2.0,51,0.00,,---,0.00,VWS V14.01,2013-07-11 06:36:00,
2013-07-11 02:41:00,78.9,58.7,32.04,SSW,207,0.0,2.0,50,0.00,,---,0.00,VWS V14.01,2013-07-11 06:41:00,
2013-07-11 02:46:00,79.1,58.9,32.04,SW,229,0.0,2.0,50,0.00,,---,0.00,VWS V14.01,2013-07-11 06:46:00,
2013-07-11 02:51:00,79.4,59.2,32.04,SW,229,0.0,2.0,50,0.00,,---,0.00,VWS V14.01,2013-07-11 06:51:00,
2013-07-11 02:56:00,79.8,59.5,32.04,SW,229,0.0,3.0,50,0.00,,---,0.00,VWS V14.01,2013-07-11 06:56:00,
2013-07-11 03:01:00,80.2,60.5,32.04,South,190,0.0,5.0,51,0.00,,---,0.00,VWS V14.01,2013-07-11 07:01:00,
2013-07-11 03:06:00,80.5,61.3,32.04,South,190,0.0,1.0,52,0.00,,---,0.00,VWS V14.01,2013-07-11 07:06:00,
2013-07-11 03:11:00,80.7,62.0,32.04,South,190,0.0,3.0,53,0.00,,---,0.00,VWS V14.01,2013-07-11 07:11:00,
2013-07-11 03:16:00,80.9,62.7,32.04,South,190,0.0,3.0,54,0.00,,---,0.00,VWS V14.01,2013-07-11 07:16:00,
2013-07-11 03:21:00,81.0,62.8,32.04,South,190,0.0,3.0,54,0.00,,---,0.00,VWS V14.01,2013-07-11 07:21:00,
2013-07-11 03:26:00,81.0,63.3,32.04,South,190,0.0,4.0,55,0.00,,---,0.00,VWS V14.01,2013-07-11 07:26:00,
2013-07-11 03:31:00,81.0,63.8,32.04,South,190,0.0,4.0,56,0.00,,---,0.00,VWS V14.01,2013-07-11 07:31:00,
2013-07-11 03:36:00,80.9,63.8,31.39,South,190,0.0,3.0,56,0.00,,---,0.00,VWS V14.01,2013-07-11 07:36:00,
2013-07-11 03:41:00,80.7,63.6,31.39,South,190,0.0,3.0,56,0.00,,---,0.00,VWS V14.01,2013-07-11 07:41:00,
2013-07-11 03:46:00,80.5,63.9,31.39,West,275,1.0,4.0,57,0.00,,---,0.00,VWS V14.01,2013-07-11 07:46:00,
2013-07-11 03:51:00,80.2,63.6,31.39,SSW,209,0.0,6.0,57,0.00,,---,0.00,VWS V14.01,2013-07-11 07:51:00,
2013-07-11 03:56:00,80.0,63.4,31.39,SSW,211,0.0,6.0,57,0.00,,---,0.00,VWS V14.01,2013-07-11 07:56:00,
2013-07-11 04:01:00,79.7,62.6,31.39,SSW,193,0.0,6.0,56,0.00,,---,0.00,VWS V14.01,2013-07-11 08:01:00,
2013-07-11 04:06:00,79.5,61.9,31.39,SSW,193,0.0,1.0,55,0.00,,---,0.00,VWS V14.01,2013-07-11 08:06:00,
2013-07-11 04:11:00,79.3,61.2,31.39,SSW,193,0.0,1.0,54,0.00,,---,0.00,VWS V14.01,2013-07-11 08:11:00,
2013-07-11 04:16:00,79.2,61.1,31.39,SSW,192,0.0,1.0,54,0.00,,---,0.00,VWS V14.01,2013-07-11 08:16:00,
2013-07-11 04:21:00,79.1,60.5,31.39,SSW,192,0.0,1.0,53,0.00,,---,0.00,VWS V14.01,2013-07-11 08:21:00,
2013-07-11 04:25:00,78.8,60.2,31.39,SSW,192,0.0,1.0,53,0.00,,---,0.00,VWS V14.01,2013-07-11 08:25:00,
2013-07-11 04:30:00,78.7,59.6,31.39,SSW,192,0.0,1.0,52,0.00,,---,0.00,VWS V14.01,2013-07-11 08:30:00,
2013-07-11 04:35:00,78.5,59.4,31.39,SSW,192,0.0,0.0,52,0.00,,---,0.00,VWS V14.01,2013-07-11 08:35:00,
2013-07-11 04:40:00,78.4,58.8,31.39,SSW,193,0.0,0.0,51,0.00,,---,0.00,VWS V14.01,2013-07-11 08:40:00,
2013-07-11 04:45:00,78.2,58.1,31.39,SSW,193,0.0,0.0,50,0.00,,---,0.00,VWS V14.01,2013-07-11 08:45:00,
2013-07-11 04:50:00,78.1,58.0,31.39,SSW,193,0.0,0.0,50,0.00,,---,0.00,VWS V14.01,2013-07-11 08:50:00,
2013-07-11 04:55:00,78.1,57.4,31.39,SSW,193,0.0,0.0,49,0.00,,---,0.00,VWS V14.01,2013-07-11 08:55:00,
2013-07-11 05:00:00,78.0,57.3,31.39,SSW,192,0.0,0.0,49,0.00,,---,0.00,VWS V14.01,2013-07-11 09:00:00,
2013-07-11 05:05:00,78.0,57.3,31.39,SSW,193,0.0,0.0,49,0.00,,---,0.00,VWS V14.01,2013-07-11 09:05:00,
2013-07-11 05:10:00,77.9,56.7,31.39,SSW,192,0.0,0.0,48,0.00,,---,0.00,VWS V14.01,2013-07-11 09:10:00,
2013-07-11 05:15:00,77.9,56.7,31.39,SSW,192,0.0,0.0,48,0.00,,---,0.00,VWS V14.01,2013-07-11 09:15:00,
2013-07-11 05:20:00,77.8,56.6,31.39,SSW,193,0.0,0.0,48,0.00,,---,0.00,VWS V14.01,2013-07-11 09:20:00,
2013-07-11 05:25:00,77.8,56.0,31.39,SSW,193,0.0,0.0,47,0.00,,---,0.00,VWS V14.01,2013-07-11 09:25:00,
2013-07-11 05:30:00,77.8,56.0,31.39,SSW,193,0.0,1.0,47,0.00,,---,0.00,VWS V14.01,2013-07-11 09:30:00,
2013-07-11 05:35:00,77.8,56.0,31.39,SSW,192,0.0,2.0,47,0.00,,---,0.00,VWS V14.01,2013-07-11 09:35:00,
2013-07-11 05:40:00,77.8,55.4,31.39,SSW,192,0.0,2.0,46,0.00,,---,0.00,VWS V14.01,2013-07-11 09:40:00,
2013-07-11 05:45:00,77.8,55.4,31.39,SSW,192,0.0,2.0,46,0.00,,---,0.00,VWS V14.01,2013-07-11 09:45:00,
2013-07-11 05:50:00,77.7,55.3,31.39,SSW,193,0.0,2.0,46,0.00,,---,0.00,VWS V14.01,2013-07-11 09:50:00,
2013-07-11 05:55:00,77.8,54.8,31.39,SSW,193,0.0,2.0,45,0.00,,---,0.00,VWS V14.01,2013-07-11 09:55:00,
2013-07-11 06:00:00,77.8,54.8,31.39,SSW,192,0.0,2.0,45,0.00,,---,0.00,VWS V14.01,2013-07-11 10:00:00,
2013-07-11 06:05:00,77.9,54.9,31.39,SSW,193,0.0,0.0,45,0.00,,---,0.00,VWS V14.01,2013-07-11 10:05:00,
2013-07-11 06:10:00,77.9,54.9,31.39,SSW,193,3.0,4.0,45,0.00,,---,0.00,VWS V14.01,2013-07-11 10:10:00,
2013-07-11 06:15:00,77.9,54.9,31.39,SSE,148,0.0,5.0,45,0.00,,---,0.00,VWS V14.01,2013-07-11 10:15:00,
2013-07-11 06:20:00,77.9,54.9,31.39,SE,145,0.0,5.0,45,0.01,,---,0.01,VWS V14.01,2013-07-11 10:20:00,
2013-07-11 06:25:00,77.8,54.2,31.39,South,176,0.0,5.0,44,0.01,,---,0.01,VWS V14.01,2013-07-11 10:25:00,
2013-07-11 06:30:00,77.8,54.2,31.39,South,176,0.0,5.0,44,0.01,,---,0.01,VWS V14.01,2013-07-11 10:30:00,
2013-07-11 06:35:00,77.8,53.5,31.39,South,176,0.0,1.0,43,0.01,,---,0.01,VWS V14.01,2013-07-11 10:35:00,
2013-07-11 06:40:00,77.8,53.5,31.39,WNW,292,0.0,1.0,43,0.02,,---,0.02,VWS V14.01,2013-07-11 10:40:00,
2013-07-11 06:45:00,77.9,53.6,31.39,WNW,292,0.0,1.0,43,0.02,,---,0.02,VWS V14.01,2013-07-11 10:45:00,
2013-07-11 06:50:00,78.0,53.1,31.39,WNW,292,0.0,1.0,42,0.02,,---,0.02,VWS V14.01,2013-07-11 10:50:00,
2013-07-11 06:55:00,78.1,53.2,31.39,WNW,291,0.0,1.0,42,0.02,,---,0.02,VWS V14.01,2013-07-11 10:55:00,
2013-07-11 07:00:00,77.9,53.0,31.39,West,270,0.0,3.0,42,0.02,,---,0.02,VWS V14.01,2013-07-11 11:00:00,
2013-07-11 07:05:00,77.7,52.8,31.39,West,270,0.0,0.0,42,0.02,,---,0.02,VWS V14.01,2013-07-11 11:05:00,
2013-07-11 07:10:00,77.5,52.6,31.39,West,269,0.0,1.0,42,0.02,,---,0.02,VWS V14.01,2013-07-11 11:10:00,
2013-07-11 07:15:00,77.4,52.5,31.39,West,270,0.0,1.0,42,0.02,,---,0.02,VWS V14.01,2013-07-11 11:15:00,
2013-07-11 07:20:00,77.5,52.6,31.39,West,270,0.0,1.0,42,0.02,,---,0.02,VWS V14.01,2013-07-11 11:20:00,
2013-07-11 07:25:00,77.6,52.7,31.39,West,270,0.0,1.0,42,0.02,,---,0.02,VWS V14.01,2013-07-11 11:25:00,
2013-07-11 07:30:00,77.6,52.7,31.39,West,269,0.0,1.0,42,0.02,,---,0.02,VWS V14.01,2013-07-11 11:30:00,
2013-07-11 07:35:00,77.7,52.8,31.39,West,270,0.0,0.0,42,0.01,,---,0.02,VWS V14.01,2013-07-11 11:35:00,
2013-07-11 07:40:00,78.0,52.4,31.39,West,270,0.0,0.0,41,0.01,,---,0.02,VWS V14.01,2013-07-11 11:40:00,
2013-07-11 07:45:00,78.3,52.7,31.39,West,270,0.0,0.0,41,0.01,,---,0.02,VWS V14.01,2013-07-11 11:45:00,
2013-07-11 07:50:00,78.4,52.8,31.39,West,270,0.0,0.0,41,0.01,,---,0.02,VWS V14.01,2013-07-11 11:50:00,
2013-07-11 07:55:00,78.5,52.9,31.39,West,270,0.0,0.0,41,0.01,,---,0.02,VWS V14.01,2013-07-11 11:55:00,
2013-07-11 08:00:00,78.5,52.9,31.39,West,270,0.0,0.0,41,0.01,,---,0.02,VWS V14.01,2013-07-11 12:00:00,
2013-07-11 08:05:00,78.5,52.9,31.39,West,269,0.0,0.0,41,0.00,,---,0.02,VWS V14.01,2013-07-11 12:05:00,
2013-07-11 08:10:00,78.4,52.8,31.39,West,270,0.0,0.0,41,0.00,,---,0.02,VWS V14.01,2013-07-11 12:10:00,
2013-07-11 08:15:00,78.6,53.0,31.39,West,270,0.0,0.0,41,0.01,,---,0.03,VWS V14.01,2013-07-11 12:15:00,
2013-07-11 08:20:00,78.7,53.0,31.39,West,270,0.0,0.0,41,0.01,,---,0.03,VWS V14.01,2013-07-11 12:20:00,
2013-07-11 08:25:00,78.7,53.0,31.39,West,269,0.0,0.0,41,0.01,,---,0.03,VWS V14.01,2013-07-11 12:25:00,
2013-07-11 08:30:00,78.7,53.0,31.39,West,270,0.0,0.0,41,0.01,,---,0.03,VWS V14.01,2013-07-11 12:30:00,
2013-07-11 08:35:00,78.7,53.0,31.39,West,270,0.0,0.0,41,0.01,,---,0.03,VWS V14.01,2013-07-11 12:35:00,
2013-07-11 08:40:00,78.7,53.0,31.39,West,269,0.0,0.0,41,0.01,,---,0.03,VWS V14.01,2013-07-11 12:40:00,
2013-07-11 08:45:00,78.7,53.0,31.39,West,270,0.0,0.0,41,0.01,,---,0.03,VWS V14.01,2013-07-11 12:45:00,
2013-07-11 08:50:00,78.7,53.0,31.39,West,269,0.0,0.0,41,0.01,,---,0.03,VWS V14.01,2013-07-11 12:50:00,
2013-07-11 08:55:00,78.8,53.1,31.39,West,269,0.0,0.0,41,0.01,,---,0.03,VWS V14.01,2013-07-11 12:55:00,
2013-07-11 09:00:00,78.9,53.2,31.39,West,269,0.0,0.0,41,0.01,,---,0.03,VWS V14.01,2013-07-11 13:00:00,
2013-07-11 09:06:00,79.0,53.3,31.39,West,270,0.0,1.0,41,0.01,,---,0.03,VWS V14.01,2013-07-11 13:06:00,
2013-07-11 09:11:00,78.9,53.9,31.39,West,270,0.0,3.0,42,0.01,,---,0.03,VWS V14.01,2013-07-11 13:11:00,
2013-07-11 09:16:00,78.8,53.8,31.39,West,269,0.0,3.0,42,0.01,,---,0.03,VWS V14.01,2013-07-11 13:16:00,
2013-07-11 09:21:00,78.7,53.7,31.39,West,269,0.0,3.0,42,0.01,,---,0.03,VWS V14.01,2013-07-11 13:21:00,
2013-07-11 09:26:00,78.7,53.7,31.39,West,270,0.0,3.0,42,0.01,,---,0.03,VWS V14.01,2013-07-11 13:26:00,
2013-07-11 09:31:00,78.5,54.2,31.39,West,270,0.0,3.0,43,0.01,,---,0.03,VWS V14.01,2013-07-11 13:31:00,
2013-07-11 09:36:00,78.6,54.3,31.39,West,270,0.0,0.0,43,0.00,,---,0.03,VWS V14.01,2013-07-11 13:36:00,
2013-07-11 09:41:00,78.7,54.3,31.39,West,270,0.0,1.0,43,0.00,,---,0.03,VWS V14.01,2013-07-11 13:41:00,
2013-07-11 09:46:00,78.8,54.4,31.39,West,270,0.0,1.0,43,0.00,,---,0.03,VWS V14.01,2013-07-11 13:46:00,
2013-07-11 09:51:00,79.1,54.1,31.39,West,270,0.0,1.0,42,0.00,,---,0.03,VWS V14.01,2013-07-11 13:51:00,
2013-07-11 09:56:00,79.1,54.7,31.39,WNW,285,1.0,6.0,43,0.00,,---,0.03,VWS V14.01,2013-07-11 13:56:00,
2013-07-11 10:01:00,78.6,56.1,31.39,WNW,292,0.0,6.0,46,0.00,,---,0.03,VWS V14.01,2013-07-11 14:01:00,
2013-07-11 10:06:00,78.2,57.5,31.39,West,261,0.0,6.0,49,0.00,,---,0.03,VWS V14.01,2013-07-11 14:06:00,
2013-07-11 10:11:00,78.2,58.1,31.39,WSW,254,0.0,7.0,50,0.00,,---,0.03,VWS V14.01,2013-07-11 14:11:00,
2013-07-11 10:16:00,78.2,58.6,31.39,West,276,0.0,7.0,51,0.00,,---,0.03,VWS V14.01,2013-07-11 14:16:00,
2013-07-11 10:21:00,78.2,59.2,31.39,West,275,0.0,7.0,52,0.00,,---,0.03,VWS V14.01,2013-07-11 14:21:00,
2013-07-11 10:26:00,78.1,59.1,31.39,WSW,257,0.0,7.0,52,0.00,,---,0.03,VWS V14.01,2013-07-11 14:26:00,
2013-07-11 10:31:00,77.8,59.8,31.39,WSW,257,0.0,7.0,54,0.00,,---,0.03,VWS V14.01,2013-07-11 14:31:00,
2013-07-11 10:37:00,77.5,60.1,31.39,West,259,0.0,4.0,55,0.00,,---,0.03,VWS V14.01,2013-07-11 14:37:00,
2013-07-11 10:42:00,77.5,59.6,31.39,West,259,0.0,4.0,54,0.00,,---,0.03,VWS V14.01,2013-07-11 14:42:00,
2013-07-11 10:47:00,77.5,59.0,31.39,West,259,0.0,4.0,53,0.00,,---,0.03,VWS V14.01,2013-07-11 14:47:00,
2013-07-11 10:52:00,77.4,59.0,31.39,West,259,0.0,4.0,53,0.00,,---,0.03,VWS V14.01,2013-07-11 14:52:00,
2013-07-11 10:57:00,77.5,58.5,31.39,West,259,0.0,4.0,52,0.00,,---,0.03,VWS V14.01,2013-07-11 14:57:00,
2013-07-11 11:02:00,77.8,57.7,31.39,West,259,0.0,0.0,50,0.00,,---,0.03,VWS V14.01,2013-07-11 15:02:00,
2013-07-11 11:07:00,77.9,58.9,31.39,West,270,1.0,10.0,52,0.00,,---,0.03,VWS V14.01,2013-07-11 15:07:00,
2013-07-11 11:12:00,77.9,58.9,31.39,West,271,0.0,10.0,52,0.00,,---,0.03,VWS V14.01,2013-07-11 15:12:00,
2013-07-11 11:17:00,78.0,59.0,31.39,West,268,0.0,10.0,52,0.00,,---,0.03,VWS V14.01,2013-07-11 15:17:00,
2013-07-11 11:22:00,78.2,59.2,31.39,West,270,0.0,10.0,52,0.00,,---,0.03,VWS V14.01,2013-07-11 15:22:00,
2013-07-11 11:27:00,78.1,60.1,31.39,West,263,0.0,10.0,54,0.00,,---,0.03,VWS V14.01,2013-07-11 15:27:00,
2013-07-11 11:32:00,78.3,59.8,31.39,West,277,0.0,1.0,53,0.00,,---,0.03,VWS V14.01,2013-07-11 15:32:00,
2013-07-11 11:37:00,78.5,60.5,31.39,West,277,0.0,3.0,54,0.00,,---,0.03,VWS V14.01,2013-07-11 15:37:00,
2013-07-11 11:42:00,78.7,61.2,31.39,West,268,0.0,6.0,55,0.00,,---,0.03,VWS V14.01,2013-07-11 15:42:00,
2013-07-11 11:47:00,78.9,61.9,31.39,West,259,0.0,6.0,56,0.00,,---,0.03,VWS V14.01,2013-07-11 15:47:00,
2013-07-11 11:52:00,79.2,64.1,31.39,West,264,0.0,6.0,60,0.00,,---,0.03,VWS V14.01,2013-07-11 15:52:00,
2013-07-11 11:57:00,79.4,64.8,31.39,West,264,0.0,6.0,61,0.00,,---,0.03,VWS V14.01,2013-07-11 15:57:00,
2013-07-11 12:02:00,80.1,65.4,31.39,West,264,0.0,1.0,61,0.00,,---,0.03,VWS V14.01,2013-07-11 16:02:00,
2013-07-11 12:08:00,80.6,66.8,31.39,West,264,0.0,1.0,63,0.00,,---,0.03,VWS V14.01,2013-07-11 16:08:00,
2013-07-11 12:12:00,81.0,67.7,31.39,West,265,0.0,5.0,64,0.00,,---,0.03,VWS V14.01,2013-07-11 16:12:00,
2013-07-11 12:18:00,81.4,68.5,31.39,West,265,0.0,5.0,65,0.00,,---,0.03,VWS V14.01,2013-07-11 16:18:00,
2013-07-11 12:23:00,81.7,68.8,31.39,West,265,3.0,5.0,65,0.00,,---,0.03,VWS V14.01,2013-07-11 16:23:00,
2013-07-11 12:28:00,81.8,69.3,31.39,West,265,0.0,5.0,66,0.00,,---,0.03,VWS V14.01,2013-07-11 16:28:00,
2013-07-11 12:33:00,82.1,69.6,31.39,West,264,0.0,1.0,66,0.00,,---,0.03,VWS V14.01,2013-07-11 16:33:00,
2013-07-11 12:38:00,82.2,69.7,31.39,West,265,0.0,3.0,66,0.00,,---,0.03,VWS V14.01,2013-07-11 16:38:00,
2013-07-11 12:43:00,82.1,70.1,31.39,West,266,0.0,4.0,67,0.00,,---,0.03,VWS V14.01,2013-07-11 16:43:00,
2013-07-11 12:48:00,82.1,70.1,31.39,West,266,0.0,5.0,67,0.00,,---,0.03,VWS V14.01,2013-07-11 16:48:00,
2013-07-11 12:53:00,82.3,70.3,31.39,West,265,0.0,5.0,67,0.00,,---,0.03,VWS V14.01,2013-07-11 16:53:00,
2013-07-11 12:58:00,82.6,70.5,31.39,West,266,0.0,5.0,67,0.00,,---,0.03,VWS V14.01,2013-07-11 16:58:00,
2013-07-11 13:03:00,83.0,71.4,31.39,West,265,0.0,4.0,68,0.00,,---,0.03,VWS V14.01,2013-07-11 17:03:00,
2013-07-11 13:08:00,83.2,71.6,31.39,West,269,6.0,6.0,68,0.00,,---,0.03,VWS V14.01,2013-07-11 17:08:00,
2013-07-11 13:13:00,83.1,71.4,31.39,West,268,0.0,6.0,68,0.00,,---,0.03,VWS V14.01,2013-07-11 17:13:00,
2013-07-11 13:18:00,83.2,71.6,31.39,West,261,0.0,10.0,68,0.00,,---,0.03,VWS V14.01,2013-07-11 17:18:00,
2013-07-11 13:23:00,83.5,71.8,31.39,West,261,0.0,10.0,68,0.00,,---,0.03,VWS V14.01,2013-07-11 17:23:00,
2013-07-11 13:28:00,83.5,71.8,31.39,West,259,0.0,10.0,68,0.00,,---,0.03,VWS V14.01,2013-07-11 17:28:00,
2013-07-11 13:34:00,83.6,71.9,31.39,West,259,0.0,0.0,68,0.00,,---,0.03,VWS V14.01,2013-07-11 17:34:00,
2013-07-11 13:39:00,83.8,72.1,31.39,West,259,0.0,3.0,68,0.00,,---,0.03,VWS V14.01,2013-07-11 17:39:00,
2013-07-11 13:44:00,84.0,72.3,31.39,West,259,0.0,6.0,68,0.00,,---,0.03,VWS V14.01,2013-07-11 17:44:00,
2013-07-11 13:49:00,84.3,72.6,31.39,West,259,0.0,6.0,68,0.00,,---,0.03,VWS V14.01,2013-07-11 17:49:00,
2013-07-11 13:54:00,84.5,72.8,31.39,West,259,0.0,6.0,68,0.00,,---,0.03,VWS V14.01,2013-07-11 17:54:00,
2013-07-11 13:59:00,84.9,73.6,31.39,West,261,0.0,6.0,69,0.00,,---,0.03,VWS V14.01,2013-07-11 17:59:00,
2013-07-11 14:04:00,85.2,73.9,31.39,West,261,0.0,1.0,69,0.01,,---,0.04,VWS V14.01,2013-07-11 18:04:00,
2013-07-11 14:09:00,85.3,74.0,31.39,West,264,0.0,6.0,69,0.01,,---,0.04,VWS V14.01,2013-07-11 18:09:00,
2013-07-11 14:14:00,85.6,74.3,31.39,West,264,0.0,6.0,69,0.01,,---,0.04,VWS V14.01,2013-07-11 18:14:00,
2013-07-11 14:19:00,85.7,74.4,31.39,West,275,2.0,6.0,69,0.01,,---,0.04,VWS V14.01,2013-07-11 18:19:00,
2013-07-11 14:24:00,85.7,74.4,31.39,West,274,0.0,6.0,69,0.01,,---,0.04,VWS V14.01,2013-07-11 18:24:00,
2013-07-11 14:29:00,85.9,74.6,31.39,West,273,0.0,6.0,69,0.01,,---,0.04,VWS V14.01,2013-07-11 18:29:00,
2013-07-11 14:34:00,86.3,74.9,31.39,West,273,0.0,3.0,69,0.01,,---,0.04,VWS V14.01,2013-07-11 18:34:00,
2013-07-11 14:39:00,86.6,75.2,31.39,West,275,4.0,5.0,69,0.01,,---,0.04,VWS V14.01,2013-07-11 18:39:00,
2013-07-11 14:45:00,86.7,75.3,31.39,West,276,0.0,1.0,69,0.01,,---,0.04,VWS V14.01,2013-07-11 18:45:00,
2013-07-11 14:50:00,87.1,75.7,31.39,NNE,15,1.0,2.0,69,0.01,,---,0.04,VWS V14.01,2013-07-11 18:50:00,
2013-07-11 14:55:00,86.8,75.0,31.39,NNE,31,0.0,2.0,68,0.01,,---,0.04,VWS V14.01,2013-07-11 18:55:00,
2013-07-11 15:00:00,87.2,75.4,31.39,NNE,31,0.0,2.0,68,0.01,,---,0.04,VWS V14.01,2013-07-11 19:00:00,
2013-07-11 15:05:00,87.8,75.9,31.39,WSW,242,3.0,3.0,68,0.00,,---,0.04,VWS V14.01,2013-07-11 19:05:00,
2013-07-11 15:10:00,87.9,76.0,31.39,West,261,0.0,6.0,68,0.00,,---,0.04,VWS V14.01,2013-07-11 19:10:00,
2013-07-11 15:15:00,87.9,75.1,31.39,WNW,302,0.0,6.0,66,0.00,,---,0.04,VWS V14.01,2013-07-11 19:15:00,
2013-07-11 15:20:00,88.3,75.5,31.39,WNW,302,0.0,6.0,66,0.00,,---,0.04,VWS V14.01,2013-07-11 19:20:00,
2013-07-11 15:25:00,88.6,76.7,31.39,WNW,291,0.0,6.0,68,0.00,,---,0.04,VWS V14.01,2013-07-11 19:25:00,
2013-07-11 15:30:00,88.3,76.8,31.39,WNW,291,0.0,6.0,69,0.00,,---,0.04,VWS V14.01,2013-07-11 19:30:00,
2013-07-11 15:35:00,88.0,76.6,31.39,WNW,292,0.0,1.0,69,0.00,,---,0.04,VWS V14.01,2013-07-11 19:35:00,
2013-07-11 15:40:00,88.0,76.6,31.39,ESE,113,2.0,3.0,69,0.00,,---,0.04,VWS V14.01,2013-07-11 19:40:00,
2013-07-11 15:45:00,87.9,76.5,31.39,SE,146,2.0,3.0,69,0.00,,---,0.04,VWS V14.01,2013-07-11 19:45:00,
2013-07-11 15:50:00,87.4,76.0,31.39,South,171,0.0,4.0,69,0.00,,---,0.04,VWS V14.01,2013-07-11 19:50:00,
2013-07-11 15:55:00,86.9,75.9,31.39,ESE,122,4.0,4.0,70,0.00,,---,0.04,VWS V14.01,2013-07-11 19:55:00,
2013-07-11 16:00:00,86.4,75.5,31.39,ESE,121,1.0,4.0,70,0.00,,---,0.04,VWS V14.01,2013-07-11 20:00:00,
2013-07-11 16:05:00,86.0,74.7,31.39,ESE,123,0.0,2.0,69,0.00,,---,0.04,VWS V14.01,2013-07-11 20:05:00,
2013-07-11 16:10:00,85.7,74.8,31.39,ESE,123,1.0,2.0,70,0.00,,---,0.04,VWS V14.01,2013-07-11 20:10:00,
2013-07-11 16:15:00,85.6,74.7,31.39,SE,126,0.0,4.0,70,0.00,,---,0.04,VWS V14.01,2013-07-11 20:15:00,
2013-07-11 16:20:00,85.5,75.0,31.39,SE,126,1.0,4.0,71,0.00,,---,0.04,VWS V14.01,2013-07-11 20:20:00,
2013-07-11 16:25:00,85.5,74.6,31.39,South,181,1.0,5.0,70,0.00,,---,0.04,VWS V14.01,2013-07-11 20:25:00,
2013-07-11 16:30:00,85.4,74.5,31.39,South,180,0.0,5.0,70,0.00,,---,0.04,VWS V14.01,2013-07-11 20:30:00,
2013-07-11 16:35:00,85.7,75.2,31.39,South,175,0.0,1.0,71,0.00,,---,0.04,VWS V14.01,2013-07-11 20:35:00,
2013-07-11 16:40:00,86.0,75.1,31.39,SSE,167,1.0,1.0,70,0.00,,---,0.04,VWS V14.01,2013-07-11 20:40:00,
2013-07-11 16:46:00,86.3,75.4,31.39,SSE,153,0.0,1.0,70,0.00,,---,0.04,VWS V14.01,2013-07-11 20:46:00,
2013-07-11 16:51:00,87.0,76.0,31.39,SSE,153,0.0,1.0,70,0.00,,---,0.04,VWS V14.01,2013-07-11 20:51:00,
2013-07-11 16:56:00,87.1,76.1,31.39,SSE,153,0.0,1.0,70,0.00,,---,0.04,VWS V14.01,2013-07-11 20:56:00,
2013-07-11 17:01:00,87.1,76.1,31.39,SE,138,1.0,3.0,70,0.00,,---,0.04,VWS V14.01,2013-07-11 21:01:00,
2013-07-11 17:06:00,86.6,75.7,31.39,SE,137,0.0,1.0,70,0.00,,---,0.04,VWS V14.01,2013-07-11 21:06:00,
2013-07-11 17:11:00,86.4,75.5,31.39,South,183,0.0,2.0,70,0.00,,---,0.04,VWS V14.01,2013-07-11 21:11:00,
2013-07-11 17:16:00,86.4,75.5,31.39,ESE,121,0.0,3.0,70,0.00,,---,0.04,VWS V14.01,2013-07-11 21:16:00,
2013-07-11 17:21:00,86.2,75.3,31.39,SE,137,0.0,3.0,70,0.00,,---,0.04,VWS V14.01,2013-07-11 21:21:00,
2013-07-11 17:26:00,86.0,75.1,31.39,SE,137,0.0,3.0,70,0.00,,---,0.04,VWS V14.01,2013-07-11 21:26:00,
2013-07-11 17:31:00,86.1,75.2,31.39,SE,141,0.0,3.0,70,0.00,,---,0.04,VWS V14.01,2013-07-11 21:31:00,
2013-07-11 17:36:00,86.2,75.3,31.39,SE,144,0.0,1.0,70,0.00,,---,0.04,VWS V14.01,2013-07-11 21:36:00,
2013-07-11 17:41:00,86.3,75.4,31.39,SE,144,0.0,1.0,70,0.00,,---,0.04,VWS V14.01,2013-07-11 21:41:00,
2013-07-11 17:46:00,86.4,75.0,31.39,SE,144,0.0,1.0,69,0.00,,---,0.04,VWS V14.01,2013-07-11 21:46:00,
2013-07-11 17:51:00,86.5,75.1,31.39,SE,144,0.0,1.0,69,0.00,,---,0.04,VWS V14.01,2013-07-11 21:51:00,
2013-07-11 17:56:00,86.5,75.1,31.39,SE,144,0.0,1.0,69,0.00,,---,0.04,VWS V14.01,2013-07-11 21:56:00,
2013-07-11 18:01:00,86.7,75.3,31.39,SE,144,0.0,1.0,69,0.00,,---,0.04,VWS V14.01,2013-07-11 22:01:00,
2013-07-11 18:06:00,86.7,75.3,31.39,SE,144,0.0,1.0,69,0.00,,---,0.04,VWS V14.01,2013-07-11 22:06:00,
2013-07-11 18:11:00,86.7,75.3,31.39,SE,144,0.0,1.0,69,0.00,,---,0.04,VWS V14.01,2013-07-11 22:11:00,
2013-07-11 18:16:00,86.5,75.1,31.39,SE,144,0.0,1.0,69,0.00,,---,0.04,VWS V14.01,2013-07-11 22:16:00,
2013-07-11 18:22:00,86.3,74.9,31.39,SE,144,0.0,1.0,69,0.00,,---,0.04,VWS V14.01,2013-07-11 22:22:00,
2013-07-11 18:27:00,86.1,74.8,31.39,SE,144,0.0,1.0,69,0.00,,---,0.04,VWS V14.01,2013-07-11 22:27:00,
2013-07-11 18:32:00,85.9,75.0,31.39,SE,144,0.0,1.0,70,0.00,,---,0.04,VWS V14.01,2013-07-11 22:32:00,
2013-07-11 18:37:00,85.8,74.9,31.39,SE,144,0.0,0.0,70,0.00,,---,0.04,VWS V14.01,2013-07-11 22:37:00,
2013-07-11 18:42:00,85.6,74.7,31.39,SE,144,0.0,0.0,70,0.00,,---,0.04,VWS V14.01,2013-07-11 22:42:00,
2013-07-11 18:47:00,85.4,74.9,31.39,SE,144,0.0,0.0,71,0.00,,---,0.04,VWS V14.01,2013-07-11 22:47:00,
2013-07-11 18:53:00,85.2,74.7,31.39,SE,144,0.0,0.0,71,0.00,,---,0.04,VWS V14.01,2013-07-11 22:53:00,
2013-07-11 18:58:00,85.1,74.6,31.39,SE,144,0.0,1.0,71,0.00,,---,0.04,VWS V14.01,2013-07-11 22:58:00,
2013-07-11 19:03:00,84.9,74.4,31.39,SE,145,0.0,0.0,71,0.00,,---,0.04,VWS V14.01,2013-07-11 23:03:00,
2013-07-11 19:08:00,84.8,74.4,31.39,SE,145,0.0,1.0,71,0.00,,---,0.04,VWS V14.01,2013-07-11 23:08:00,
2013-07-11 19:13:00,84.8,74.4,31.39,SE,145,0.0,1.0,71,0.00,,---,0.04,VWS V14.01,2013-07-11 23:13:00,
2013-07-11 19:19:00,84.6,74.2,31.39,SE,145,0.0,1.0,71,0.00,,---,0.04,VWS V14.01,2013-07-11 23:19:00,
2013-07-11 19:24:00,84.6,74.2,31.39,SE,145,0.0,1.0,71,0.00,,---,0.04,VWS V14.01,2013-07-11 23:24:00,
2013-07-11 19:29:00,84.7,74.3,31.39,SE,145,0.0,1.0,71,0.00,,---,0.04,VWS V14.01,2013-07-11 23:29:00,
2013-07-11 19:34:00,84.6,74.2,31.39,SE,145,0.0,0.0,71,0.00,,---,0.04,VWS V14.01,2013-07-11 23:34:00,
2013-07-11 19:39:00,84.3,73.9,31.39,West,276,0.0,1.0,71,0.00,,---,0.04,VWS V14.01,2013-07-11 23:39:00,
2013-07-11 19:44:00,84.2,73.8,31.39,West,276,0.0,1.0,71,0.00,,---,0.04,VWS V14.01,2013-07-11 23:44:00,
2013-07-11 19:49:00,84.0,73.6,31.39,West,276,0.0,1.0,71,0.00,,---,0.04,VWS V14.01,2013-07-11 23:49:00,
2013-07-11 19:54:00,83.8,73.4,31.39,West,276,0.0,1.0,71,0.00,,---,0.04,VWS V14.01,2013-07-11 23:54:00,
2013-07-11 19:59:00,83.5,73.1,31.39,West,276,0.0,1.0,71,0.00,,---,0.04,VWS V14.01,2013-07-11 23:59:00,
2013-07-11 20:04:00,83.2,72.8,31.39,North,355,0.0,0.0,71,0.00,,---,0.04,VWS V14.01,2013-07-12 00:04:00,
2013-07-11 20:09:00,82.9,72.5,31.39,North,355,0.0,0.0,71,0.00,,---,0.04,VWS V14.01,2013-07-12 00:09:00,
2013-07-11 20:14:00,82.5,72.2,31.39,North,11,0.0,4.0,71,0.00,,---,0.04,VWS V14.01,2013-07-12 00:14:00,
2013-07-11 20:19:00,82.1,71.8,31.39,NNE,21,0.0,4.0,71,0.00,,---,0.04,VWS V14.01,2013-07-12 00:19:00,
2013-07-11 20:24:00,81.8,71.5,31.39,NNE,22,0.0,4.0,71,0.00,,---,0.04,VWS V14.01,2013-07-12 00:24:00,
2013-07-11 20:29:00,81.3,71.0,31.39,NNE,31,0.0,4.0,71,0.00,,---,0.04,VWS V14.01,2013-07-12 00:29:00,
2013-07-11 20:34:00,81.0,70.7,31.39,NNE,28,0.0,3.0,71,0.00,,---,0.04,VWS V14.01,2013-07-12 00:34:00,
2013-07-11 20:39:00,80.7,70.4,31.39,NNE,29,4.0,6.0,71,0.00,,---,0.04,VWS V14.01,2013-07-12 00:39:00,
2013-07-11 20:44:00,80.4,70.1,31.39,NNE,30,0.0,6.0,71,0.00,,---,0.04,VWS V14.01,2013-07-12 00:44:00,
2013-07-11 20:49:00,80.1,69.9,31.39,NNE,24,0.0,6.0,71,0.00,,---,0.04,VWS V14.01,2013-07-12 00:49:00,
2013-07-11 20:54:00,79.9,69.7,31.39,NNE,24,0.0,6.0,71,0.00,,---,0.04,VWS V14.01,2013-07-12 00:54:00,
2013-07-11 20:59:00,79.7,69.5,31.39,NNE,24,0.0,6.0,71,0.00,,---,0.04,VWS V14.01,2013-07-12 00:59:00,
2013-07-11 21:04:00,79.5,69.3,31.39,NNE,24,0.0,1.0,71,0.00,,---,0.04,VWS V14.01,2013-07-12 01:04:00,
2013-07-11 21:09:00,79.2,69.0,31.39,NNE,24,0.0,4.0,71,0.00,,---,0.04,VWS V14.01,2013-07-12 01:09:00,
2013-07-11 21:14:00,79.1,68.9,31.39,NNE,24,0.0,4.0,71,0.00,,---,0.04,VWS V14.01,2013-07-12 01:14:00,
2013-07-11 21:20:00,78.8,68.6,31.39,NNE,24,0.0,4.0,71,0.00,,---,0.04,VWS V14.01,2013-07-12 01:20:00,
2013-07-11 21:25:00,78.7,68.5,31.39,NNE,25,0.0,4.0,71,0.00,,---,0.04,VWS V14.01,2013-07-12 01:25:00,
2013-07-11 21:30:00,78.7,68.5,31.39,NNE,28,0.0,4.0,71,0.00,,---,0.04,VWS V14.01,2013-07-12 01:30:00,
2013-07-11 21:35:00,78.5,68.3,31.39,NNE,28,0.0,0.0,71,0.00,,---,0.04,VWS V14.01,2013-07-12 01:35:00,
2013-07-11 21:40:00,78.4,68.2,31.39,NNE,28,0.0,3.0,71,0.00,,---,0.04,VWS V14.01,2013-07-12 01:40:00,
2013-07-11 21:45:00,78.3,68.1,31.39,NNE,28,0.0,3.0,71,0.00,,---,0.04,VWS V14.01,2013-07-12 01:45:00,
2013-07-11 21:50:00,78.2,68.0,31.39,NNE,28,0.0,3.0,71,0.00,,---,0.04,VWS V14.01,2013-07-12 01:50:00,
2013-07-11 21:55:00,78.0,67.8,31.39,NNE,28,0.0,5.0,71,0.00,,---,0.04,VWS V14.01,2013-07-12 01:55:00,
2013-07-11 22:00:00,77.8,67.7,31.39,NNE,28,0.0,5.0,71,0.00,,---,0.04,VWS V14.01,2013-07-12 02:00:00,
2013-07-11 22:06:00,77.6,67.5,31.39,NNE,28,0.0,0.0,71,0.00,,---,0.04,VWS V14.01,2013-07-12 02:06:00,
2013-07-11 22:11:00,77.5,67.4,31.39,NNE,28,0.0,1.0,71,0.00,,---,0.04,VWS V14.01,2013-07-12 02:11:00,
2013-07-11 22:16:00,77.3,67.2,31.39,NNE,28,0.0,1.0,71,0.00,,---,0.04,VWS V14.01,2013-07-12 02:16:00,
2013-07-11 22:21:00,77.3,67.2,31.39,NNE,28,0.0,1.0,71,0.00,,---,0.04,VWS V14.01,2013-07-12 02:21:00,
2013-07-11 22:26:00,77.1,67.0,31.39,NNE,28,0.0,4.0,71,0.00,,---,0.04,VWS V14.01,2013-07-12 02:26:00,
2013-07-11 22:31:00,77.0,66.9,31.39,NNE,28,0.0,4.0,71,0.00,,---,0.04,VWS V14.01,2013-07-12 02:31:00,
2013-07-11 22:36:00,77.0,66.9,31.39,NNE,28,0.0,0.0,71,0.00,,---,0.04,VWS V14.01,2013-07-12 02:36:00,
2013-07-11 22:41:00,76.9,66.8,31.39,NNE,28,0.0,2.0,71,0.00,,---,0.04,VWS V14.01,2013-07-12 02:41:00,
2013-07-11 22:46:00,76.8,66.7,31.39,NNE,28,2.0,2.0,71,0.00,,---,0.04,VWS V14.01,2013-07-12 02:46:00,
2013-07-11 22:52:00,76.7,66.6,31.39,NNE,30,0.0,4.0,71,0.00,,---,0.04,VWS V14.01,2013-07-12 02:52:00,
2013-07-11 22:57:00,76.7,66.6,31.39,NE,36,0.0,4.0,71,0.00,,---,0.04,VWS V14.01,2013-07-12 02:57:00,
2013-07-11 23:01:00,76.8,66.7,31.39,NE,36,0.0,4.0,71,0.00,,---,0.04,VWS V14.01,2013-07-12 03:01:00,
2013-07-11 23:06:00,76.7,66.6,31.39,NE,36,0.0,2.0,71,0.00,,---,0.04,VWS V14.01,2013-07-12 03:06:00,
2013-07-11 23:12:00,76.7,66.6,31.39,NE,34,0.0,3.0,71,0.00,,---,0.04,VWS V14.01,2013-07-12 03:12:00,
2013-07-11 23:17:00,76.7,66.6,31.39,NE,34,0.0,3.0,71,0.00,,---,0.04,VWS V14.01,2013-07-12 03:17:00,
2013-07-11 23:22:00,76.7,66.6,31.39,NE,34,0.0,3.0,71,0.00,,---,0.04,VWS V14.01,2013-07-12 03:22:00,
2013-07-11 23:27:00,76.6,66.5,31.39,NE,34,0.0,3.0,71,0.00,,---,0.04,VWS V14.01,2013-07-12 03:27:00,
2013-07-11 23:32:00,76.5,66.4,31.39,NE,34,0.0,3.0,71,0.00,,---,0.04,VWS V14.01,2013-07-12 03:32:00,
2013-07-11 23:37:00,76.4,66.3,31.39,NE,34,0.0,0.0,71,0.00,,---,0.04,VWS V14.01,2013-07-12 03:37:00,
2013-07-11 23:42:00,76.3,66.2,31.39,NE,34,0.0,1.0,71,0.00,,---,0.04,VWS V14.01,2013-07-12 03:42:00,
2013-07-11 23:47:00,76.2,66.5,31.39,NE,34,0.0,1.0,72,0.00,,---,0.04,VWS V14.01,2013-07-12 03:47:00,
2013-07-11 23:52:00,76.1,66.4,31.39,NE,34,0.0,1.0,72,0.00,,---,0.04,VWS V14.01,2013-07-12 03:52:00,
2013-07-11 23:57:00,75.9,66.2,31.39,NE,34,0.0,1.0,72,0.00,,---,0.04,VWS V14.01,2013-07-12 03:57:00,